| time (UTC) | temp F | wind direction | speed knots | gust knots | rain 1hr in | rain 24hr in | rain mn in | humidity % | barometer mb |
| 20260510044536 | 59 | 0.0 | 2.6 | 0.00 | 0.00 | 0.00 | 85 | 1011.3 | |
| 20260510043517 | 59 | 0.0 | 0.0 | 0.00 | 0.00 | 0.00 | 85 | 1011.4 | |
| 20260510042517 | 59 | 0.0 | 0.9 | 0.00 | 0.00 | 0.00 | 84 | 1011.4 | |
| 20260510041517 | 59 | 0.0 | 0.0 | 0.00 | 0.00 | 0.00 | 83 | 1011.4 | |
| 20260510040517 | 60 | 0.0 | 0.0 | 0.00 | 0.00 | 0.00 | 83 | 1011.4 | |
| 20260510035516 | 60 | 0.0 | 0.0 | 0.00 | 0.00 | 0.00 | 83 | 1011.3 | |
| 20260510034516 | 60 | 0.0 | 0.0 | 0.00 | 0.00 | 0.00 | 83 | 1011.3 | |
| 20260510033516 | 60 | 0.0 | 2.6 | 0.00 | 0.00 | 0.00 | 83 | 1011.2 | |
| 20260510032516 | 60 | 0.0 | 0.0 | 0.00 | 0.00 | 0.00 | 82 | 1011.3 | |
| 20260510031516 | 61 | 0.0 | 0.0 | 0.00 | 0.00 | 0.00 | 82 | 1011.3 | |
| 20260510030516 | 61 | 0.0 | 0.0 | 0.00 | 0.00 | 0.00 | 81 | 1011.2 | |
| 20260510025516 | 62 | 0.0 | 0.0 | 0.00 | 0.00 | 0.00 | 79 | 1011.2 | |
| 20260510024516 | 62 | 0.0 | 0.0 | 0.00 | 0.00 | 0.00 | 78 | 1011.1 | |
| 20260510023516 | 63 | 0.0 | 0.0 | 0.00 | 0.00 | 0.00 | 78 | 1010.9 | |
| 20260510022516 | 63 | 0.0 | 0.0 | 0.00 | 0.00 | 0.00 | 77 | 1010.9 | |
| 20260510021516 | 63 | 0.0 | 0.0 | 0.00 | 0.00 | 0.00 | 76 | 1010.8 | |
| 20260510020516 | 64 | 0.0 | 0.0 | 0.00 | 0.00 | 0.00 | 76 | 1010.8 | |
| 20260510015516 | 64 | 0.0 | 0.0 | 0.00 | 0.00 | 0.00 | 76 | 1010.7 | |
| 20260510014516 | 64 | 0.0 | 0.0 | 0.00 | 0.00 | 0.00 | 75 | 1010.8 | |
| 20260510013516 | 64 | 0.0 | 1.7 | 0.00 | 0.00 | 0.00 | 76 | 1010.5 | |
| 20260510012516 | 65 | 0.0 | 0.0 | 0.00 | 0.00 | 0.00 | 74 | 1010.4 | |
| 20260510011516 | 65 | 68 | 0.9 | 4.3 | 0.00 | 0.00 | 0.00 | 73 | 1010.2 |
| 20260510010516 | 65 | 0.0 | 1.7 | 0.00 | 0.00 | 0.00 | 72 | 1010.1 | |
| 20260510005516 | 65 | 0.0 | 0.0 | 0.00 | 0.00 | 0.00 | 71 | 1010.0 | |
| 20260510004516 | 65 | 0.0 | 0.9 | 0.00 | 0.00 | 0.00 | 70 | 1009.8 | |
| 20260510003516 | 66 | 0.0 | 0.0 | 0.00 | 0.00 | 0.00 | 69 | 1009.8 | |
| 20260510002516 | 67 | 0.0 | 0.0 | 0.00 | 0.00 | 0.00 | 66 | 1009.8 | |
| 20260510001516 | 69 | 0.0 | 0.0 | 0.00 | 0.00 | 0.00 | 64 | 1009.7 | |
| 20260510000516 | 70 | 0.0 | 0.0 | 0.00 | 0.00 | 0.00 | 62 | 1009.6 | |
| 20260509235516 | 71 | 0.0 | 0.0 | 0.00 | 0.00 | 0.00 | 59 | 1009.7 | |
| 20260509234516 | 72 | 0.0 | 0.0 | 0.00 | 0.00 | 0.00 | 58 | 1009.5 | |
| 20260509233516 | 72 | 0.0 | 0.0 | 0.00 | 0.00 | 0.00 | 56 | 1009.4 | |
| 20260509232516 | 73 | 0.0 | 0.0 | 0.00 | 0.00 | 0.00 | 55 | 1009.5 | |
| 20260509231516 | 73 | 0.0 | 0.0 | 0.00 | 0.00 | 0.00 | 55 | 1009.3 | |
| 20260509230516 | 73 | 0.0 | 0.0 | 0.00 | 0.00 | 0.00 | 55 | 1009.4 | |
| 20260509225516 | 73 | 0.0 | 2.6 | 0.00 | 0.00 | 0.00 | 57 | 1009.4 | |
| 20260509224516 | 74 | 0.0 | 2.6 | 0.00 | 0.00 | 0.00 | 54 | 1009.5 | |
| 20260509223516 | 74 | 180 | 0.9 | 4.3 | 0.00 | 0.00 | 0.00 | 53 | 1009.3 |
| 20260509222516 | 73 | 0.0 | 0.0 | 0.00 | 0.00 | 0.00 | 53 | 1009.5 | |
| 20260509221516 | 74 | 0.0 | 0.0 | 0.00 | 0.00 | 0.00 | 52 | 1009.5 | |
| 20260509220516 | 74 | 0.0 | 0.0 | 0.00 | 0.00 | 0.00 | 52 | 1009.4 | |
| 20260509215516 | 75 | 225 | 0.9 | 3.5 | 0.00 | 0.00 | 0.00 | 51 | 1009.4 |
| 20260509214516 | 75 | 0.0 | 2.6 | 0.00 | 0.00 | 0.00 | 50 | 1009.5 | |
| 20260509213516 | 75 | 0.0 | 0.9 | 0.00 | 0.00 | 0.00 | 51 | 1009.4 | |
| 20260509212516 | 75 | 0.0 | 3.5 | 0.00 | 0.00 | 0.00 | 50 | 1009.5 | |
| 20260509211516 | 76 | 0.0 | 1.7 | 0.00 | 0.00 | 0.00 | 50 | 1009.5 | |
| 20260509210516 | 76 | 270 | 0.9 | 6.1 | 0.00 | 0.00 | 0.00 | 50 | 1009.5 |
| 20260509205516 | 75 | 270 | 1.7 | 7.0 | 0.00 | 0.00 | 0.00 | 50 | 1009.4 |
| 20260509204516 | 76 | 293 | 0.9 | 3.5 | 0.00 | 0.00 | 0.00 | 50 | 1009.4 |
| 20260509203516 | 75 | 203 | 0.9 | 6.1 | 0.00 | 0.00 | 0.00 | 52 | 1009.3 |
| 20260509202516 | 75 | 270 | 0.9 | 6.1 | 0.00 | 0.00 | 0.00 | 51 | 1009.2 |
| 20260509201516 | 75 | 248 | 0.9 | 6.1 | 0.00 | 0.00 | 0.00 | 52 | 1009.5 |
| 20260509200516 | 75 | 203 | 1.7 | 7.0 | 0.00 | 0.00 | 0.00 | 51 | 1009.7 |
| 20260509195516 | 74 | 158 | 2.6 | 9.6 | 0.00 | 0.00 | 0.00 | 52 | 1009.8 |
| 20260509194516 | 74 | 203 | 0.9 | 7.8 | 0.00 | 0.00 | 0.00 | 53 | 1010.0 |
| 20260509193516 | 74 | 135 | 0.9 | 6.1 | 0.00 | 0.00 | 0.00 | 56 | 1010.0 |
| 20260509192516 | 73 | 180 | 0.9 | 5.2 | 0.00 | 0.00 | 0.00 | 56 | 1010.5 |
| 20260509191516 | 72 | 203 | 0.9 | 6.1 | 0.00 | 0.00 | 0.00 | 57 | 1010.4 |
| 20260509190518 | 72 | 225 | 0.9 | 7.0 | 0.00 | 0.00 | 0.00 | 56 | 1010.5 |
| 20260509185516 | 71 | 203 | 0.9 | 6.1 | 0.00 | 0.00 | 0.00 | 58 | 1010.4 |
| 20260509184516 | 70 | 225 | 1.7 | 8.7 | 0.00 | 0.00 | 0.00 | 60 | 1010.6 |
| 20260509183516 | 69 | 0.0 | 0.0 | 0.00 | 0.00 | 0.00 | 61 | 1010.6 | |
| 20260509182516 | 68 | 0.0 | 0.0 | 0.00 | 0.00 | 0.00 | 61 | 1010.6 | |
| 20260509181516 | 68 | 0.0 | 0.0 | 0.00 | 0.00 | 0.00 | 61 | 1011.0 | |
| 20260509180516 | 69 | 0.0 | 1.7 | 0.00 | 0.00 | 0.00 | 59 | 1011.2 | |
| 20260509175516 | 70 | 0.0 | 0.0 | 0.00 | 0.00 | 0.00 | 57 | 1011.2 | |
| 20260509174516 | 70 | 0.0 | 0.9 | 0.00 | 0.00 | 0.00 | 57 | 1011.3 | |
| 20260509173516 | 70 | 0.0 | 4.3 | 0.00 | 0.00 | 0.00 | 56 | 1011.4 | |
| 20260509172516 | 70 | 0.0 | 3.5 | 0.00 | 0.00 | 0.00 | 57 | 1011.4 | |
| 20260509171536 | 69 | 0.0 | 3.5 | 0.00 | 0.00 | 0.00 | 58 | 1011.5 | |
| 20260509170516 | 69 | 225 | 0.9 | 3.5 | 0.00 | 0.00 | 0.00 | 58 | 1011.6 |
| 20260509165516 | 69 | 293 | 1.7 | 7.8 | 0.00 | 0.00 | 0.00 | 59 | 1011.7 |
| 20260509164516 | 68 | 248 | 0.9 | 6.1 | 0.00 | 0.00 | 0.00 | 58 | 1011.8 |
| 20260509163516 | 68 | 225 | 0.9 | 8.7 | 0.00 | 0.00 | 0.00 | 58 | 1011.8 |
| 20260509162516 | 68 | 203 | 1.7 | 7.0 | 0.00 | 0.00 | 0.00 | 58 | 1011.8 |
| 20260509161516 | 68 | 225 | 0.9 | 3.5 | 0.00 | 0.00 | 0.00 | 58 | 1011.8 |
| 20260509160516 | 68 | 158 | 0.9 | 5.2 | 0.00 | 0.00 | 0.00 | 60 | 1011.9 |
| 20260509155516 | 67 | 158 | 1.7 | 7.0 | 0.00 | 0.00 | 0.00 | 60 | 1012.0 |
| 20260509154516 | 67 | 0.0 | 2.6 | 0.00 | 0.00 | 0.00 | 60 | 1012.1 | |
| 20260509153636 | 67 | 203 | 1.7 | 7.0 | 0.00 | 0.00 | 0.00 | 59 | 1012.1 |
| 20260509152516 | 67 | 225 | 2.6 | 9.6 | 0.00 | 0.00 | 0.00 | 60 | 1012.2 |
| 20260509151516 | 66 | 203 | 0.9 | 7.8 | 0.00 | 0.00 | 0.00 | 62 | 1012.1 |
| 20260509150516 | 65 | 180 | 0.9 | 5.2 | 0.00 | 0.00 | 0.00 | 64 | 1012.3 |
| 20260509145536 | 63 | 225 | 0.9 | 4.3 | 0.00 | 0.00 | 0.00 | 65 | 1012.5 |
| 20260509144516 | 63 | 225 | 0.9 | 6.1 | 0.00 | 0.00 | 0.00 | 65 | 1012.6 |
| 20260509143516 | 62 | 203 | 0.9 | 5.2 | 0.00 | 0.00 | 0.00 | 66 | 1012.8 |
| 20260509142516 | 62 | 225 | 0.9 | 4.3 | 0.00 | 0.00 | 0.00 | 67 | 1012.9 |
| 20260509141516 | 61 | 203 | 0.9 | 5.2 | 0.00 | 0.00 | 0.00 | 67 | 1012.9 |
| 20260509140515 | 61 | 158 | 0.9 | 4.3 | 0.00 | 0.00 | 0.00 | 66 | 1012.8 |
| 20260509135516 | 61 | 180 | 0.9 | 6.1 | 0.00 | 0.00 | 0.00 | 67 | 1012.8 |
| 20260509134516 | 60 | 203 | 0.9 | 5.2 | 0.00 | 0.00 | 0.00 | 67 | 1012.9 |
| 20260509133516 | 60 | 0.0 | 3.5 | 0.00 | 0.00 | 0.00 | 67 | 1012.9 | |
| 20260509132556 | 60 | 203 | 0.9 | 7.0 | 0.00 | 0.00 | 0.00 | 67 | 1013.0 |
| 20260509131516 | 60 | 0.0 | 3.5 | 0.00 | 0.00 | 0.00 | 66 | 1013.0 | |
| 20260509130516 | 60 | 248 | 0.9 | 5.2 | 0.00 | 0.00 | 0.00 | 65 | 1013.0 |
| 20260509125516 | 60 | 225 | 1.7 | 7.8 | 0.00 | 0.00 | 0.00 | 65 | 1013.0 |
| 20260509124516 | 60 | 225 | 2.6 | 7.8 | 0.00 | 0.00 | 0.00 | 64 | 1012.7 |
| 20260509123536 | 60 | 203 | 1.7 | 6.1 | 0.00 | 0.00 | 0.00 | 64 | 1012.7 |
| 20260509122516 | 60 | 203 | 0.9 | 6.1 | 0.00 | 0.00 | 0.00 | 64 | 1012.7 |
| 20260509121515 | 59 | 180 | 2.6 | 8.7 | 0.00 | 0.00 | 0.00 | 63 | 1012.8 |
| 20260509120516 | 59 | 158 | 1.7 | 7.0 | 0.00 | 0.00 | 0.00 | 63 | 1012.7 |
| 20260509115516 | 60 | 203 | 0.9 | 7.0 | 0.00 | 0.00 | 0.00 | 62 | 1012.8 |
| 20260509114516 | 60 | 203 | 1.7 | 7.8 | 0.00 | 0.00 | 0.00 | 61 | 1012.8 |
| 20260509113515 | 60 | 135 | 0.9 | 6.1 | 0.00 | 0.00 | 0.00 | 61 | 1012.8 |
| 20260509112515 | 59 | 203 | 0.9 | 4.3 | 0.00 | 0.00 | 0.00 | 61 | 1012.6 |
| 20260509111515 | 59 | 248 | 0.9 | 6.1 | 0.00 | 0.00 | 0.00 | 60 | 1012.5 |
| 20260509110515 | 59 | 203 | 1.7 | 7.0 | 0.00 | 0.00 | 0.00 | 58 | 1012.6 |
| 20260509105516 | 59 | 225 | 0.9 | 4.3 | 0.00 | 0.00 | 0.00 | 58 | 1012.6 |
| 20260509104515 | 59 | 203 | 1.7 | 6.1 | 0.00 | 0.00 | 0.00 | 57 | 1012.6 |
| 20260509103516 | 59 | 203 | 1.7 | 7.8 | 0.00 | 0.00 | 0.00 | 56 | 1012.4 |
| 20260509102515 | 59 | 0.0 | 1.7 | 0.00 | 0.00 | 0.00 | 55 | 1012.3 | |
| 20260509101516 | 59 | 0.0 | 0.0 | 0.00 | 0.00 | 0.00 | 55 | 1012.3 | |
| 20260509100515 | 59 | 0.0 | 1.7 | 0.00 | 0.00 | 0.00 | 55 | 1012.2 | |
| 20260509095516 | 59 | 0.0 | 1.7 | 0.00 | 0.00 | 0.00 | 55 | 1012.1 | |
| 20260509094515 | 59 | 0.0 | 1.7 | 0.00 | 0.00 | 0.00 | 54 | 1012.1 | |
| 20260509093556 | 60 | 0.0 | 1.7 | 0.00 | 0.00 | 0.00 | 54 | 1012.2 | |
| 20260509092515 | 59 | 0.0 | 3.5 | 0.00 | 0.00 | 0.00 | 55 | 1012.4 | |
| 20260509091515 | 59 | 0.0 | 2.6 | 0.00 | 0.00 | 0.00 | 54 | 1012.3 | |
| 20260509090515 | 59 | 270 | 0.9 | 5.2 | 0.00 | 0.00 | 0.00 | 55 | 1012.4 |
| 20260509085515 | 59 | 203 | 1.7 | 8.7 | 0.00 | 0.00 | 0.00 | 56 | 1012.5 |
| 20260509084536 | 59 | 248 | 0.9 | 7.0 | 0.00 | 0.00 | 0.00 | 56 | 1012.5 |
| 20260509083516 | 59 | 0.0 | 3.5 | 0.00 | 0.00 | 0.00 | 57 | 1012.7 | |
| 20260509082515 | 59 | 0.0 | 0.9 | 0.00 | 0.00 | 0.00 | 59 | 1012.8 | |
| 20260509081535 | 59 | 0.0 | 0.9 | 0.00 | 0.00 | 0.00 | 59 | 1013.0 | |
| 20260509080515 | 59 | 0.0 | 3.5 | 0.00 | 0.00 | 0.00 | 59 | 1013.0 | |
| 20260509075515 | 59 | 158 | 0.9 | 6.1 | 0.00 | 0.00 | 0.00 | 59 | 1013.1 |
| 20260509074556 | 59 | 225 | 0.9 | 8.7 | 0.00 | 0.00 | 0.00 | 59 | 1013.2 |
| 20260509073516 | 59 | 225 | 0.9 | 7.0 | 0.00 | 0.00 | 0.00 | 58 | 1013.2 |
| 20260509072516 | 59 | 135 | 0.9 | 5.2 | 0.00 | 0.00 | 0.00 | 57 | 1013.1 |
| 20260509071515 | 59 | 225 | 0.9 | 5.2 | 0.00 | 0.00 | 0.00 | 57 | 1013.1 |
| 20260509070515 | 59 | 180 | 0.9 | 3.5 | 0.00 | 0.00 | 0.00 | 56 | 1013.2 |
| 20260509065515 | 59 | 270 | 0.9 | 4.3 | 0.00 | 0.00 | 0.00 | 55 | 1013.4 |
| 20260509064515 | 60 | 180 | 0.9 | 7.8 | 0.00 | 0.00 | 0.00 | 55 | 1013.3 |
| 20260509063535 | 60 | 203 | 0.9 | 3.5 | 0.00 | 0.00 | 0.00 | 55 | 1013.4 |
| 20260509062515 | 60 | 180 | 0.9 | 4.3 | 0.00 | 0.00 | 0.00 | 55 | 1013.5 |
| 20260509061515 | 60 | 225 | 0.9 | 4.3 | 0.00 | 0.00 | 0.00 | 55 | 1013.6 |
| 20260509060515 | 60 | 0.0 | 2.6 | 0.00 | 0.00 | 0.00 | 54 | 1013.5 | |
| 20260509055515 | 60 | 0.0 | 3.5 | 0.00 | 0.00 | 0.00 | 54 | 1013.6 | |
| 20260509054515 | 60 | 203 | 0.9 | 7.8 | 0.00 | 0.00 | 0.00 | 53 | 1013.6 |
| 20260509053515 | 60 | 0.0 | 3.5 | 0.00 | 0.00 | 0.00 | 54 | 1013.6 | |
| 20260509052515 | 60 | 0.0 | 3.5 | 0.00 | 0.00 | 0.00 | 54 | 1013.6 | |
| 20260509051515 | 60 | 0.0 | 4.3 | 0.00 | 0.00 | 0.00 | 54 | 1013.6 | |
| 20260509050535 | 60 | 0.0 | 3.5 | 0.00 | 0.00 | 0.00 | 55 | 1013.5 | |
| 20260509045515 | 60 | 0.0 | 3.5 | 0.00 | 0.00 | 0.00 | 55 | 1013.5 |